createdAt,value
2018-11-13T00:00:55.569Z,11.76
2018-11-13T00:03:24.173Z,11.90
2018-11-13T00:05:52.732Z,11.88
2018-11-13T00:08:21.672Z,11.86
2018-11-13T00:10:50.239Z,11.80
2018-11-13T00:13:18.825Z,11.87
2018-11-13T00:15:47.417Z,11.84
2018-11-13T00:18:16.026Z,11.85
2018-11-13T00:20:44.591Z,11.76
2018-11-13T00:23:13.201Z,11.79
2018-11-13T00:25:41.802Z,11.75
2018-11-13T00:28:10.408Z,11.82
2018-11-13T00:30:39.009Z,11.76
2018-11-13T00:33:07.609Z,11.83
2018-11-13T00:35:36.180Z,11.90
2018-11-13T00:38:05.207Z,11.88
2018-11-13T00:40:33.780Z,11.86
2018-11-13T00:43:02.385Z,11.86
2018-11-13T00:45:31.008Z,11.76
2018-11-13T00:47:59.556Z,11.78
2018-11-13T00:50:28.169Z,11.81
2018-11-13T00:52:56.752Z,11.82
2018-11-13T00:55:26.947Z,11.80
2018-11-13T00:57:55.588Z,11.78
2018-11-13T01:00:27.086Z,11.87
2018-11-13T01:02:55.691Z,11.86
2018-11-13T01:05:24.345Z,11.64
2018-11-13T01:07:52.877Z,11.45
2018-11-13T01:10:22.137Z,11.49
2018-11-13T01:12:50.803Z,11.51
2018-11-13T01:15:20.907Z,11.48
2018-11-13T01:17:49.961Z,11.43
2018-11-13T01:20:19.129Z,11.52
2018-11-13T01:22:47.737Z,11.46
2018-11-13T01:25:17.123Z,11.39
2018-11-13T01:27:46.030Z,11.43
2018-11-13T01:30:15.460Z,11.43
2018-11-13T01:32:44.535Z,11.48
2018-11-13T01:35:14.504Z,11.41
2018-11-13T01:37:43.145Z,11.50
2018-11-13T01:40:13.236Z,11.54
2018-11-13T01:42:42.496Z,11.60
2018-11-13T01:45:15.413Z,11.64
2018-11-13T01:47:44.021Z,11.51
2018-11-13T01:50:13.239Z,11.38
2018-11-13T01:52:41.764Z,11.34
2018-11-13T01:55:12.134Z,11.43
2018-11-13T01:57:40.673Z,11.40
2018-11-13T02:00:16.056Z,11.40
2018-11-13T02:02:45.639Z,11.38
2018-11-13T02:05:14.241Z,11.59
2018-11-13T02:07:42.833Z,11.67
2018-11-13T02:10:11.557Z,11.62
2018-11-13T02:12:40.236Z,11.64
2018-11-13T02:15:09.416Z,11.69
2018-11-13T02:17:38.029Z,11.51
2018-11-13T02:20:13.468Z,11.64
2018-11-13T02:22:42.157Z,11.52
2018-11-13T02:25:13.132Z,11.47
2018-11-13T02:27:42.344Z,11.52
2018-11-13T02:30:13.700Z,11.57
2018-11-13T02:32:43.181Z,11.43
2018-11-13T02:35:12.434Z,11.40
2018-11-13T02:37:41.097Z,11.51
2018-11-13T02:40:09.795Z,11.58
2018-11-13T02:42:38.947Z,11.69
2018-11-13T02:45:11.583Z,11.63
2018-11-13T02:47:40.603Z,11.53
2018-11-13T02:50:11.081Z,11.57
2018-11-13T02:52:40.057Z,11.63
2018-11-13T02:55:09.681Z,11.59
2018-11-13T02:57:38.360Z,11.61
2018-11-13T03:00:10.476Z,11.62
2018-11-13T03:02:39.083Z,11.53
2018-11-13T03:05:09.546Z,11.54
2018-11-13T03:07:38.387Z,11.50
2018-11-13T03:10:08.457Z,11.42
2018-11-13T03:12:38.005Z,11.46
2018-11-13T03:15:07.698Z,11.40
2018-11-13T03:17:36.350Z,11.42
2018-11-13T03:20:05.939Z,11.46
2018-11-13T03:22:34.505Z,11.51
2018-11-13T03:25:03.119Z,11.59
2018-11-13T03:27:31.698Z,11.54
2018-11-13T03:30:00.285Z,11.55
2018-11-13T03:32:28.869Z,11.49
2018-11-13T03:34:57.453Z,11.44
2018-11-13T03:37:26.013Z,11.39
2018-11-13T03:39:54.608Z,11.39
2018-11-13T03:42:23.172Z,11.37
2018-11-13T03:44:51.795Z,11.38
2018-11-13T03:47:20.654Z,11.36
2018-11-13T03:49:49.238Z,11.39
2018-11-13T03:52:17.796Z,11.36
2018-11-13T03:54:46.373Z,11.41
2018-11-13T03:57:15.172Z,11.40
2018-11-13T03:59:43.786Z,11.41
2018-11-13T04:02:12.344Z,11.40
2018-11-13T04:04:40.924Z,11.48
2018-11-13T04:07:09.480Z,11.39
2018-11-13T04:09:38.058Z,11.40
2018-11-13T04:12:06.282Z,11.41
2018-11-13T04:14:34.832Z,11.48
2018-11-13T04:17:03.432Z,11.40
2018-11-13T04:19:32.297Z,11.39
2018-11-13T04:22:02.817Z,11.35
2018-11-13T04:24:31.416Z,11.52
2018-11-13T04:27:00.305Z,11.54
2018-11-13T04:29:29.109Z,11.44
2018-11-13T04:31:57.937Z,11.36
2018-11-13T04:34:26.508Z,11.38
2018-11-13T04:36:55.089Z,11.32
2018-11-13T04:39:23.632Z,11.33
2018-11-13T04:41:52.219Z,11.38
2018-11-13T04:44:20.778Z,11.41
2018-11-13T04:46:49.361Z,11.44
2018-11-13T04:49:17.916Z,11.37
2018-11-13T04:51:46.516Z,11.29
2018-11-13T04:54:15.078Z,11.26
2018-11-13T04:56:43.664Z,11.33
2018-11-13T04:59:12.229Z,11.32
2018-11-13T05:01:40.825Z,11.35
2018-11-13T05:04:09.387Z,11.41
2018-11-13T05:06:37.960Z,11.48
2018-11-13T05:09:07.566Z,11.46
2018-11-13T05:11:36.189Z,11.48
2018-11-13T05:14:04.986Z,11.35
2018-11-13T05:16:33.597Z,11.35
2018-11-13T05:19:02.198Z,11.41
2018-11-13T05:21:30.793Z,11.51
2018-11-13T05:23:59.537Z,11.51
2018-11-13T05:26:29.072Z,11.41
2018-11-13T05:28:57.633Z,11.42
2018-11-13T05:31:26.232Z,11.50
2018-11-13T05:33:54.950Z,11.57
2018-11-13T05:36:23.567Z,11.38
2018-11-13T05:38:52.134Z,11.36
2018-11-13T05:41:20.720Z,11.32
2018-11-13T05:43:49.274Z,11.37
2018-11-13T05:46:18.066Z,11.38
2018-11-13T05:48:46.621Z,11.33
2018-11-13T05:51:15.193Z,11.29
2018-11-13T05:53:43.766Z,11.11
2018-11-13T05:56:12.366Z,10.99
2018-11-13T05:58:41.191Z,10.97
2018-11-13T06:01:09.910Z,11.05
2018-11-13T06:03:38.595Z,10.92
2018-11-13T06:06:07.558Z,10.88
2018-11-13T06:08:36.204Z,10.85
2018-11-13T06:11:04.798Z,10.81
2018-11-13T06:13:33.457Z,10.87
2018-11-13T06:16:02.228Z,10.87
2018-11-13T06:18:30.854Z,10.78
2018-11-13T06:20:59.420Z,10.76
2018-11-13T06:23:28.019Z,10.77
2018-11-13T06:25:56.653Z,10.78
2018-11-13T06:28:30.539Z,10.76
2018-11-13T06:30:59.149Z,10.85
2018-11-13T06:33:27.809Z,10.73
2018-11-13T06:35:56.769Z,10.75
2018-11-13T06:38:25.380Z,10.73
2018-11-13T06:41:01.393Z,10.74
2018-11-13T06:43:37.768Z,10.78
2018-11-13T06:46:10.920Z,10.77
2018-11-13T06:48:43.654Z,10.73
2018-11-13T06:51:14.241Z,10.68
2018-11-13T06:53:57.627Z,10.66
2018-11-13T06:56:34.637Z,10.70
2018-11-13T06:59:11.893Z,10.65
2018-11-13T07:01:40.705Z,10.68
2018-11-13T07:04:09.301Z,10.69
2018-11-13T07:06:37.848Z,10.72
2018-11-13T07:09:08.530Z,10.71
2018-11-13T07:11:37.090Z,10.59
2018-11-13T07:14:05.860Z,10.57
2018-11-13T07:16:34.433Z,10.65
2018-11-13T07:19:03.005Z,10.63
2018-11-13T07:21:31.569Z,10.55
2018-11-13T07:24:00.153Z,10.54
2018-11-13T07:26:28.706Z,10.46
2018-11-13T07:28:57.297Z,10.47
2018-11-13T07:31:25.865Z,10.47
2018-11-13T07:33:54.468Z,10.56
2018-11-13T07:36:23.034Z,10.87
2018-11-13T07:38:51.641Z,10.62
2018-11-13T07:41:20.201Z,10.49
2018-11-13T07:43:48.785Z,10.54
2018-11-13T07:46:17.349Z,10.69
2018-11-13T07:48:46.164Z,10.65
2018-11-13T07:51:14.796Z,10.64
2018-11-13T07:53:43.368Z,10.61
2018-11-13T07:56:11.909Z,10.63
2018-11-13T07:58:40.509Z,10.63
2018-11-13T08:01:09.096Z,10.68
2018-11-13T08:03:40.533Z,10.67
2018-11-13T08:06:09.155Z,10.64
2018-11-13T08:08:37.704Z,10.72
2018-11-13T08:11:06.379Z,10.71
2018-11-13T08:13:35.568Z,10.72
2018-11-13T08:16:04.073Z,10.74
2018-11-13T08:18:33.371Z,10.76
2018-11-13T08:21:02.038Z,10.76
2018-11-13T08:23:30.816Z,10.73
2018-11-13T08:25:59.588Z,10.73
2018-11-13T08:28:28.394Z,10.65
2018-11-13T08:30:56.948Z,10.69
2018-11-13T08:33:25.770Z,10.65
2018-11-13T08:35:54.406Z,10.71
2018-11-13T08:38:23.169Z,10.75
2018-11-13T08:40:51.808Z,10.78
2018-11-13T08:43:20.824Z,10.85
2018-11-13T08:45:49.576Z,10.90
2018-11-13T08:48:18.312Z,10.89
2018-11-13T08:50:47.096Z,10.90
2018-11-13T08:53:15.929Z,10.80
2018-11-13T08:55:44.679Z,10.77
2018-11-13T08:58:13.340Z,10.80
2018-11-13T09:00:42.249Z,10.76
2018-11-13T09:03:10.934Z,10.79
2018-11-13T09:05:39.741Z,10.87
2018-11-13T09:08:08.610Z,10.91
2018-11-13T09:10:38.715Z,10.99
2018-11-13T09:13:07.555Z,10.94
2018-11-13T09:15:36.308Z,10.97
2018-11-13T09:18:05.433Z,10.97
2018-11-13T09:20:34.230Z,10.93
2018-11-13T09:23:02.942Z,10.92
2018-11-13T09:25:31.965Z,10.89
2018-11-13T09:28:00.656Z,10.88
2018-11-13T09:30:29.549Z,10.93
2018-11-13T09:32:58.141Z,10.98
2018-11-13T09:35:26.919Z,11.02
2018-11-13T09:37:55.610Z,11.04
2018-11-13T09:40:24.437Z,11.06
2018-11-13T09:42:53.385Z,11.12
2018-11-13T09:45:22.264Z,11.12
2018-11-13T09:47:51.135Z,11.09
2018-11-13T09:50:21.008Z,11.26
2018-11-13T09:52:51.045Z,11.27
2018-11-13T09:55:21.228Z,11.20
2018-11-13T09:57:49.980Z,11.22
2018-11-13T10:00:20.425Z,11.21
2018-11-13T10:02:54.081Z,11.23
2018-11-13T10:05:23.090Z,11.23
2018-11-13T10:07:52.404Z,11.27
2018-11-13T10:10:21.135Z,11.27
2018-11-13T10:12:49.941Z,11.33
2018-11-13T10:15:21.221Z,11.39
2018-11-13T10:17:50.074Z,11.37
2018-11-13T10:20:18.813Z,11.51
2018-11-13T10:22:48.977Z,11.47
2018-11-13T10:25:17.920Z,11.51
2018-11-13T10:27:46.746Z,11.52
2018-11-13T10:30:16.941Z,11.66
2018-11-13T10:32:46.056Z,11.65
2018-11-13T10:35:16.095Z,11.63
2018-11-13T10:37:44.820Z,11.62
2018-11-13T10:40:15.151Z,11.62
2018-11-13T10:42:44.360Z,11.68
2018-11-13T10:45:14.908Z,11.82
2018-11-13T10:47:43.900Z,11.79
2018-11-13T10:50:17.346Z,12.07
2018-11-13T10:52:45.947Z,12.00
2018-11-13T10:55:14.784Z,11.93
2018-11-13T10:57:43.800Z,12.09
2018-11-13T11:00:18.691Z,12.00
2018-11-13T11:02:52.895Z,12.03
2018-11-13T11:05:22.326Z,12.00
2018-11-13T11:07:51.128Z,11.99
2018-11-13T11:10:19.972Z,11.89
2018-11-13T11:12:48.721Z,11.64
2018-11-13T11:15:17.664Z,11.68
2018-11-13T11:17:46.390Z,11.71
2018-11-13T11:20:15.157Z,11.61
2018-11-13T11:22:43.774Z,11.52
2018-11-13T11:25:13.415Z,11.46
2018-11-13T11:27:42.179Z,11.48
2018-11-13T11:30:13.540Z,11.48
2018-11-13T11:32:42.222Z,11.77
2018-11-13T11:35:10.893Z,11.77
2018-11-13T11:37:40.257Z,11.83
2018-11-13T11:40:09.828Z,11.94
2018-11-13T11:42:38.649Z,12.12
2018-11-13T11:45:10.548Z,12.01
2018-11-13T11:47:39.166Z,12.03
2018-11-13T11:50:09.072Z,11.96
2018-11-13T11:52:37.948Z,11.96
2018-11-13T11:55:07.091Z,11.84
2018-11-13T11:57:35.735Z,11.80
2018-11-13T12:00:05.133Z,11.77
2018-11-13T12:02:33.707Z,11.71
2018-11-13T12:05:02.261Z,11.76
2018-11-13T12:07:30.865Z,11.76
2018-11-13T12:10:02.629Z,11.76
2018-11-13T12:12:31.365Z,11.78
2018-11-13T12:14:59.933Z,11.82
2018-11-13T12:17:28.625Z,11.68
2018-11-13T12:19:57.716Z,11.70
2018-11-13T12:22:26.313Z,11.65
2018-11-13T12:24:54.923Z,11.69
2018-11-13T12:27:23.512Z,11.61
2018-11-13T12:29:52.817Z,11.71
2018-11-13T12:32:21.410Z,11.92
2018-11-13T12:34:49.981Z,11.90
2018-11-13T12:37:18.592Z,11.95
2018-11-13T12:39:47.166Z,11.80
2018-11-13T12:42:15.757Z,11.95
2018-11-13T12:44:44.310Z,11.92
2018-11-13T12:47:12.904Z,11.87
2018-11-13T12:49:41.638Z,12.09
2018-11-13T12:52:17.309Z,12.19
2018-11-13T12:54:46.814Z,12.27
2018-11-13T12:57:15.375Z,12.21
2018-11-13T12:59:44.048Z,12.13
2018-11-13T13:02:13.690Z,12.17
2018-11-13T13:04:42.453Z,12.34
2018-11-13T13:07:11.075Z,12.44
2018-11-13T13:09:39.661Z,12.48
2018-11-13T13:12:09.885Z,12.55
2018-11-13T13:14:38.636Z,12.55
2018-11-13T13:17:07.432Z,12.58
2018-11-13T13:19:36.005Z,12.59
2018-11-13T13:22:05.242Z,12.59
2018-11-13T13:24:34.014Z,12.58
2018-11-13T13:27:02.753Z,12.66
2018-11-13T13:29:31.345Z,12.86
2018-11-13T13:32:00.745Z,12.85
2018-11-13T13:34:29.672Z,12.61
2018-11-13T13:36:58.485Z,12.71
2018-11-13T13:39:27.141Z,12.76
2018-11-13T13:41:55.750Z,12.64
2018-11-13T13:44:24.356Z,12.79
2018-11-13T13:46:52.925Z,12.72
2018-11-13T13:49:21.556Z,12.62
2018-11-13T13:51:54.146Z,12.52
2018-11-13T13:54:23.822Z,12.41
2018-11-13T13:56:54.903Z,12.49
2018-11-13T13:59:43.209Z,12.50
2018-11-13T14:02:17.662Z,12.60
2018-11-13T14:04:51.940Z,12.34
2018-11-13T14:07:33.179Z,12.19
2018-11-13T14:10:02.333Z,12.04
2018-11-13T14:12:37.445Z,12.12
2018-11-13T14:15:09.334Z,11.98
2018-11-13T14:17:44.861Z,11.93
2018-11-13T14:20:25.062Z,11.92
2018-11-13T14:22:56.146Z,11.89
2018-11-13T14:25:28.040Z,12.04
2018-11-13T14:28:03.831Z,12.19
2018-11-13T14:30:34.601Z,12.33
2018-11-13T14:33:09.918Z,12.31
2018-11-13T14:35:44.429Z,12.56
2018-11-13T14:38:20.997Z,12.65
2018-11-13T14:40:55.160Z,12.65
2018-11-13T14:43:30.664Z,12.83
2018-11-13T14:46:04.849Z,12.81
2018-11-13T14:48:36.849Z,12.85
2018-11-13T14:51:06.321Z,12.84
2018-11-13T14:53:35.811Z,12.69
2018-11-13T14:56:04.511Z,12.68
2018-11-13T14:58:38.964Z,12.74
2018-11-13T15:01:14.363Z,12.81
2018-11-13T15:03:48.602Z,12.70
2018-11-13T15:06:23.718Z,12.66
2018-11-13T15:08:53.685Z,12.61
2018-11-13T15:11:25.925Z,12.54
2018-11-13T15:13:57.636Z,12.60
2018-11-13T15:16:27.400Z,12.69
2018-11-13T15:18:56.064Z,12.58
2018-11-13T15:21:30.504Z,12.53
2018-11-13T15:24:04.263Z,12.56
2018-11-13T15:26:38.065Z,12.35
2018-11-13T15:29:09.135Z,12.17
2018-11-13T15:31:37.885Z,12.17
2018-11-13T15:34:11.335Z,12.04
2018-11-13T15:36:42.734Z,11.99
2018-11-13T15:39:27.211Z,11.88
2018-11-13T15:41:56.833Z,11.74
2018-11-13T15:44:30.442Z,11.72
2018-11-13T15:46:59.767Z,11.57
2018-11-13T15:49:31.494Z,11.60
2018-11-13T15:52:00.805Z,11.41
2018-11-13T15:54:33.735Z,11.54
2018-11-13T15:57:05.437Z,11.45
2018-11-13T15:59:34.097Z,11.34
2018-11-13T16:02:04.944Z,11.25
2018-11-13T16:04:33.552Z,11.10
2018-11-13T16:07:02.225Z,11.05
2018-11-13T16:09:33.086Z,11.07
2018-11-13T16:12:02.437Z,10.93
2018-11-13T16:14:32.757Z,10.98
2018-11-13T16:17:01.793Z,10.89
2018-11-13T16:19:32.185Z,10.83
2018-11-13T16:22:06.219Z,10.83
2018-11-13T16:24:34.416Z,10.82
2018-11-13T16:27:04.253Z,10.72
2018-11-13T16:29:34.332Z,10.46
2018-11-13T16:32:03.528Z,10.59
2018-11-13T16:34:37.021Z,10.45
2018-11-13T16:37:07.255Z,10.49
2018-11-13T16:39:36.782Z,10.44
2018-11-13T16:42:05.633Z,10.32
2018-11-13T16:44:37.600Z,10.26
2018-11-13T16:47:07.412Z,10.18
2018-11-13T16:49:40.791Z,10.09
2018-11-13T16:52:09.478Z,9.63
2018-11-13T16:54:43.440Z,9.56
2018-11-13T16:57:12.541Z,9.60
2018-11-13T16:59:41.105Z,9.65
2018-11-13T17:02:10.270Z,9.78
2018-11-13T17:04:39.059Z,9.72
2018-11-13T17:07:07.781Z,9.67
2018-11-13T17:09:36.441Z,9.67
2018-11-13T17:12:12.065Z,9.36
2018-11-13T17:14:45.216Z,9.35
2018-11-13T17:17:14.010Z,9.48
2018-11-13T17:19:42.670Z,9.49
2018-11-13T17:22:11.453Z,9.41
2018-11-13T17:24:40.009Z,9.38
2018-11-13T17:27:09.173Z,9.23
2018-11-13T17:29:37.741Z,9.21
2018-11-13T17:32:06.573Z,9.08
2018-11-13T17:34:35.141Z,9.03
2018-11-13T17:37:03.768Z,8.97
2018-11-13T17:39:32.330Z,8.90
2018-11-13T17:42:00.900Z,8.78
2018-11-13T17:44:30.892Z,8.91
2018-11-13T17:46:58.237Z,8.84
2018-11-13T17:49:26.773Z,8.83
2018-11-13T17:51:55.367Z,8.74
2018-11-13T17:54:23.929Z,8.73
2018-11-13T17:56:54.297Z,8.50
2018-11-13T17:59:22.872Z,8.44
2018-11-13T18:01:51.766Z,8.35
2018-11-13T18:04:20.325Z,8.39
2018-11-13T18:06:48.916Z,8.26
2018-11-13T18:09:17.493Z,8.44
2018-11-13T18:11:46.113Z,8.31
2018-11-13T18:14:14.684Z,8.23
2018-11-13T18:16:43.354Z,7.95
2018-11-13T18:19:11.860Z,7.86
2018-11-13T18:21:40.507Z,8.06
2018-11-13T18:24:09.033Z,8.09
2018-11-13T18:26:37.620Z,8.20
2018-11-13T18:29:06.441Z,7.70
2018-11-13T18:31:35.028Z,7.81
2018-11-13T18:34:03.583Z,7.96
2018-11-13T18:36:32.165Z,8.07
2018-11-13T18:39:04.485Z,7.96
2018-11-13T18:41:32.955Z,7.74
2018-11-13T18:44:01.708Z,7.81
2018-11-13T18:46:30.297Z,7.72
2018-11-13T18:49:02.662Z,7.77
2018-11-13T18:51:31.188Z,7.56
2018-11-13T18:53:59.784Z,7.51
2018-11-13T18:56:28.344Z,7.55
2018-11-13T18:58:59.758Z,7.35
2018-11-13T19:01:28.285Z,7.28
2018-11-13T19:03:56.865Z,7.51
2018-11-13T19:06:25.430Z,7.14
2018-11-13T19:08:54.093Z,7.05
2018-11-13T19:11:22.724Z,7.01
2018-11-13T19:13:51.316Z,6.88
2018-11-13T19:16:19.949Z,7.12
2018-11-13T19:18:49.848Z,7.18
2018-11-13T19:21:18.293Z,7.01
2018-11-13T19:23:46.892Z,6.57
2018-11-13T19:26:15.444Z,6.77
2018-11-13T19:28:44.016Z,6.77
2018-11-13T19:31:13.991Z,6.92
2018-11-13T19:33:43.053Z,6.82
2018-11-13T19:36:11.736Z,6.80
2018-11-13T19:38:40.256Z,6.85
2018-11-13T19:41:08.837Z,6.87
2018-11-13T19:43:39.260Z,6.91
2018-11-13T19:46:07.808Z,6.90
2018-11-13T19:48:36.388Z,6.86
2018-11-13T19:51:05.045Z,6.82
2018-11-13T19:53:33.893Z,6.74
2018-11-13T19:56:02.468Z,6.66
2018-11-13T19:58:31.725Z,6.76
2018-11-13T20:01:00.416Z,6.68
2018-11-13T20:03:28.982Z,6.53
2018-11-13T20:05:57.577Z,6.33
2018-11-13T20:08:26.185Z,6.44
2018-11-13T20:10:54.908Z,6.39
2018-11-13T20:13:23.529Z,6.43
2018-11-13T20:15:52.121Z,6.27
2018-11-13T20:18:20.695Z,6.25
2018-11-13T20:20:50.283Z,6.26
2018-11-13T20:23:19.069Z,6.16
2018-11-13T20:25:47.960Z,5.87
2018-11-13T20:28:16.542Z,6.10
2018-11-13T20:30:45.162Z,6.19
2018-11-13T20:33:13.737Z,6.35
2018-11-13T20:35:42.281Z,6.36
2018-11-13T20:38:10.888Z,6.19
2018-11-13T20:40:39.592Z,6.33
2018-11-13T20:43:10.175Z,6.29
2018-11-13T20:45:38.709Z,6.26
2018-11-13T20:48:08.182Z,6.00
2018-11-13T20:50:36.777Z,5.88
2018-11-13T20:53:05.389Z,5.82
2018-11-13T20:55:35.396Z,5.70
2018-11-13T20:58:03.960Z,5.72
2018-11-13T21:00:34.655Z,5.96
2018-11-13T21:03:03.303Z,5.83
2018-11-13T21:05:34.479Z,5.76
2018-11-13T21:08:03.332Z,5.54
2018-11-13T21:10:36.856Z,5.60
2018-11-13T21:13:05.733Z,5.61
2018-11-13T21:15:34.347Z,5.44
2018-11-13T21:18:03.768Z,5.52
2018-11-13T21:20:32.727Z,5.65
2018-11-13T21:23:01.286Z,5.40
2018-11-13T21:25:30.776Z,5.59
2018-11-13T21:28:01.481Z,5.27
2018-11-13T21:30:30.189Z,5.24
2018-11-13T21:32:59.612Z,5.59
2018-11-13T21:35:29.326Z,5.66
2018-11-13T21:38:02.967Z,5.66
2018-11-13T21:40:31.801Z,5.69
2018-11-13T21:43:00.366Z,5.61
2018-11-13T21:45:29.525Z,5.47
2018-11-13T21:47:58.118Z,5.53
2018-11-13T21:50:28.049Z,5.34
2018-11-13T21:52:56.648Z,5.00
2018-11-13T21:55:26.518Z,5.04
2018-11-13T21:57:55.098Z,5.51
2018-11-13T22:00:25.732Z,5.49
2018-11-13T22:02:56.909Z,5.46
2018-11-13T22:05:28.907Z,5.34
2018-11-13T22:08:02.480Z,5.39
2018-11-13T22:10:32.770Z,5.34
2018-11-13T22:13:03.003Z,5.36
2018-11-13T22:15:33.935Z,5.17
2018-11-13T22:18:03.165Z,4.95
2018-11-13T22:20:34.076Z,5.01
2018-11-13T22:23:06.813Z,5.14
2018-11-13T22:25:37.650Z,5.08
2018-11-13T22:28:07.135Z,5.06
2018-11-13T22:30:37.055Z,5.10
2018-11-13T22:33:08.143Z,5.02
2018-11-13T22:35:38.166Z,4.91
2018-11-13T22:38:09.686Z,5.05
2018-11-13T22:40:40.864Z,5.07
2018-11-13T22:43:11.574Z,4.96
2018-11-13T22:45:42.527Z,4.98
2018-11-13T22:48:14.435Z,4.96
2018-11-13T22:50:44.159Z,5.17
2018-11-13T22:53:14.255Z,5.04
2018-11-13T22:55:48.390Z,4.98
2018-11-13T22:58:17.782Z,4.91
2018-11-13T23:00:50.719Z,4.97
2018-11-13T23:03:22.214Z,4.99
2018-11-13T23:05:52.163Z,4.89
2018-11-13T23:08:25.125Z,4.91
2018-11-13T23:10:54.220Z,4.89
2018-11-13T23:13:25.517Z,4.93
2018-11-13T23:15:56.707Z,4.83
2018-11-13T23:18:27.195Z,4.65
2018-11-13T23:21:00.804Z,4.78
2018-11-13T23:23:29.378Z,4.85
2018-11-13T23:25:57.997Z,4.63
2018-11-13T23:28:26.565Z,4.63
2018-11-13T23:30:55.188Z,4.77
2018-11-13T23:33:23.763Z,4.73
2018-11-13T23:35:52.357Z,4.68
2018-11-13T23:38:20.995Z,4.71
2018-11-13T23:40:49.601Z,4.54
2018-11-13T23:43:18.173Z,4.71
2018-11-13T23:45:46.770Z,4.77
2018-11-13T23:48:15.380Z,4.69
2018-11-13T23:50:50.879Z,4.79
2018-11-13T23:53:20.567Z,4.55
2018-11-13T23:55:54.153Z,4.77
2018-11-13T23:58:23.957Z,4.83
